Time;durP1;ratioP1;P1;durP2;ratioP2;P2;SDS_P1;SDS_P2;PMS_P1;PMS_P2;Temp;Humidity;BMP_temperature;BMP_pressure;BME280_temperature;BME280_humidity;BME280_pressure;Samples;Min_cycle;Max_cycle;Signal;HPM_P1;HPM_P2
2023/04/07 00:00:51;;;;;;;11.65;6.63;;;6.00;56.20;;;;;;5005249;28;20030;-78
2023/04/07 00:03:17;;;;;;;11.75;6.85;;;6.10;56.10;;;;;;5020600;28;20040;-81
2023/04/07 00:05:42;;;;;;;12.70;7.78;;;6.10;56.50;;;;;;5005715;28;20207;-78
2023/04/07 00:08:08;;;;;;;11.50;7.65;;;6.00;56.50;;;;;;5024746;28;20108;-78
2023/04/07 00:10:33;;;;;;;12.30;7.18;;;6.10;55.90;;;;;;5016131;28;20041;-78
2023/04/07 00:12:59;;;;;;;10.43;7.07;;;5.90;56.70;;;;;;5019230;28;20036;-79
2023/04/07 00:15:25;;;;;;;10.18;7.43;;;5.90;57.00;;;;;;5009225;28;20475;-81
2023/04/07 00:17:50;;;;;;;13.68;7.43;;;5.80;57.30;;;;;;5029134;28;20359;-78
2023/04/07 00:20:16;;;;;;;12.50;7.88;;;5.80;57.70;;;;;;5025043;28;20117;-78
2023/04/07 00:22:42;;;;;;;14.48;8.45;;;5.70;57.90;;;;;;5021313;28;20056;-78
2023/04/07 00:25:07;;;;;;;11.50;6.82;;;5.70;57.90;;;;;;5020476;28;20340;-80
2023/04/07 00:27:33;;;;;;;12.45;8.13;;;5.60;58.00;;;;;;5026324;28;20029;-78
2023/04/07 00:29:58;;;;;;;13.45;8.05;;;5.70;57.80;;;;;;5023135;28;20113;-79
2023/04/07 00:32:24;;;;;;;14.70;7.55;;;5.60;58.20;;;;;;5026919;28;20036;-78
2023/04/07 00:34:49;;;;;;;11.88;7.68;;;5.60;58.10;;;;;;5025330;28;20064;-78
2023/04/07 00:37:15;;;;;;;11.75;7.45;;;5.60;58.30;;;;;;5009130;28;20025;-78
2023/04/07 00:39:41;;;;;;;13.13;7.22;;;5.50;58.70;;;;;;5010451;28;20144;-78
2023/04/07 00:42:06;;;;;;;10.65;7.30;;;5.50;58.80;;;;;;5028706;28;20203;-78
2023/04/07 00:44:32;;;;;;;12.73;7.03;;;5.60;58.50;;;;;;5029235;28;20044;-77
2023/04/07 00:46:59;;;;;;;11.95;7.70;;;5.50;59.20;;;;;;5029373;28;20128;-78
2023/04/07 00:49:27;;;;;;;12.43;7.47;;;5.50;58.90;;;;;;5010398;28;20060;-80
2023/04/07 00:51:56;;;;;;;10.27;7.25;;;5.40;59.10;;;;;;5027342;28;20354;-79
2023/04/07 00:54:25;;;;;;;12.80;7.72;;;5.40;59.00;;;;;;5010574;28;20404;-78
2023/04/07 00:56:52;;;;;;;11.88;8.02;;;5.30;59.60;;;;;;5021878;28;20061;-79
2023/04/07 00:59:18;;;;;;;11.98;7.72;;;5.30;59.50;;;;;;5029063;28;20463;-78
2023/04/07 01:01:56;;;;;;;12.13;7.82;;;5.40;59.30;;;;;;5015538;28;20033;-77
2023/04/07 01:04:27;;;;;;;12.82;7.53;;;5.40;59.20;;;;;;5027362;28;20033;-78
2023/04/07 01:06:57;;;;;;;10.85;7.78;;;5.30;59.70;;;;;;5021376;28;20578;-77
2023/04/07 01:09:31;;;;;;;10.88;7.18;;;5.20;60.10;;;;;;5028146;28;20025;-78
2023/04/07 01:12:21;;;;;;;13.10;8.07;;;5.20;60.10;;;;;;5025958;28;20118;-77
2023/04/07 01:14:51;;;;;;;12.98;7.88;;;5.30;59.90;;;;;;5019240;28;20038;-77
2023/04/07 01:17:19;;;;;;;12.82;7.95;;;5.10;60.40;;;;;;5026443;28;20061;-77
2023/04/07 01:19:57;;;;;;;10.98;7.88;;;5.10;60.70;;;;;;5026443;28;20037;-77
2023/04/07 01:22:38;;;;;;;12.00;7.45;;;5.10;60.60;;;;;;5020453;28;20052;-78
2023/04/07 01:25:42;;;;;;;9.98;6.78;;;5.00;61.30;;;;;;5021746;28;20033;-78
2023/04/07 01:28:29;;;;;;;11.95;7.72;;;5.00;61.20;;;;;;5026415;28;20269;-80
2023/04/07 01:30:57;;;;;;;12.32;7.80;;;5.00;61.10;;;;;;5016455;28;20098;-77
2023/04/07 01:33:24;;;;;;;13.52;7.88;;;5.00;60.90;;;;;;5027929;28;20292;-78
2023/04/07 01:35:51;;;;;;;13.10;7.30;;;4.90;61.40;;;;;;5025471;28;20033;-79
2023/04/07 01:38:17;;;;;;;11.10;7.43;;;4.90;61.60;;;;;;5019685;28;20080;-79
2023/04/07 01:40:44;;;;;;;12.55;7.55;;;4.90;61.30;;;;;;5008082;28;20219;-78
2023/04/07 01:43:11;;;;;;;11.80;7.97;;;4.80;61.30;;;;;;5031030;28;20060;-78
2023/04/07 01:45:37;;;;;;;12.48;7.68;;;4.90;61.40;;;;;;5008707;28;20038;-80
2023/04/07 01:48:06;;;;;;;14.35;7.78;;;4.80;61.70;;;;;;5006057;28;20379;-77
2023/04/07 01:50:32;;;;;;;12.15;7.43;;;4.80;61.70;;;;;;5007058;28;20520;-78
2023/04/07 01:52:58;;;;;;;12.07;7.22;;;4.90;61.60;;;;;;5007127;28;20040;-79
2023/04/07 01:55:24;;;;;;;13.88;7.97;;;4.70;62.00;;;;;;5012445;28;20124;-77
2023/04/07 01:57:52;;;;;;;11.63;8.13;;;4.70;62.10;;;;;;5006864;28;20182;-77
2023/04/07 02:00:18;;;;;;;11.40;7.50;;;4.70;62.20;;;;;;5010337;28;20033;-78
2023/04/07 02:02:45;;;;;;;14.35;7.72;;;4.80;61.40;;;;;;5000304;28;20034;-78
2023/04/07 02:05:13;;;;;;;13.75;8.38;;;4.80;61.40;;;;;;5005559;28;20030;-80
2023/04/07 02:07:51;;;;;;;13.27;8.38;;;4.70;61.90;;;;;;5004743;28;20084;-78
2023/04/07 02:10:20;;;;;;;11.55;7.55;;;4.70;61.80;;;;;;4998535;28;20037;-80
2023/04/07 02:12:46;;;;;;;14.10;8.55;;;4.70;61.70;;;;;;5000853;28;20077;-78
2023/04/07 02:15:14;;;;;;;13.35;7.68;;;4.70;61.50;;;;;;5019543;28;20136;-78
2023/04/07 02:17:46;;;;;;;12.55;7.90;;;4.60;61.90;;;;;;5007483;28;20473;-78
2023/04/07 02:20:13;;;;;;;12.45;7.80;;;4.60;62.40;;;;;;5000683;28;20124;-79
2023/04/07 02:22:40;;;;;;;12.65;7.68;;;4.50;62.50;;;;;;5003493;28;20116;-78
2023/04/07 02:25:22;;;;;;;12.85;8.35;;;4.60;61.90;;;;;;5002273;28;20034;-79
2023/04/07 02:27:47;;;;;;;14.98;8.05;;;4.50;62.20;;;;;;4999955;28;20038;-78
2023/04/07 02:30:13;;;;;;;16.38;8.20;;;4.50;62.60;;;;;;4994021;28;20040;-78
2023/04/07 02:32:38;;;;;;;15.77;8.38;;;4.50;62.40;;;;;;5014640;28;20186;-78
2023/04/07 02:35:04;;;;;;;11.70;7.35;;;4.40;62.50;;;;;;5003517;28;20039;-78
2023/04/07 02:37:30;;;;;;;13.95;8.10;;;4.40;62.30;;;;;;5003923;28;20049;-78
2023/04/07 02:39:55;;;;;;;13.32;7.88;;;4.40;62.30;;;;;;5003024;28;20507;-78
2023/04/07 02:42:21;;;;;;;14.45;7.80;;;4.40;62.20;;;;;;5007650;28;20041;-78
2023/04/07 02:44:46;;;;;;;13.20;8.63;;;4.40;62.60;;;;;;5006403;28;20038;-81
2023/04/07 02:47:12;;;;;;;15.02;8.10;;;4.40;62.20;;;;;;5016815;28;20344;-78
2023/04/07 02:49:37;;;;;;;12.05;7.43;;;4.40;62.20;;;;;;5023244;28;20117;-79
2023/04/07 02:52:03;;;;;;;14.88;8.73;;;4.30;62.80;;;;;;5021545;28;20331;-78
2023/04/07 02:54:28;;;;;;;13.60;8.07;;;4.30;62.60;;;;;;5022374;28;20041;-78
2023/04/07 02:56:55;;;;;;;14.60;8.68;;;4.30;62.70;;;;;;5025971;28;20033;-81
2023/04/07 02:59:21;;;;;;;11.27;7.63;;;4.20;63.00;;;;;;5007007;28;20080;-80
2023/04/07 03:01:46;;;;;;;14.43;9.00;;;4.20;62.80;;;;;;5018602;28;20061;-80
2023/04/07 03:04:12;;;;;;;13.52;8.15;;;4.40;62.00;;;;;;5024859;28;20037;-78
2023/04/07 03:06:37;;;;;;;12.00;8.65;;;4.30;62.00;;;;;;5005233;28;20478;-78
2023/04/07 03:09:03;;;;;;;14.68;7.88;;;4.30;62.20;;;;;;5002532;28;20033;-79
2023/04/07 03:11:28;;;;;;;14.88;8.43;;;4.20;62.20;;;;;;5019463;28;20168;-78
2023/04/07 03:13:54;;;;;;;12.55;8.30;;;4.00;63.60;;;;;;5024333;28;20386;-78
2023/04/07 03:16:19;;;;;;;11.77;7.50;;;3.90;64.10;;;;;;5024004;28;20055;-78
2023/04/07 03:18:45;;;;;;;12.18;8.18;;;3.70;65.50;;;;;;5016571;28;20096;-78
2023/04/07 03:21:11;;;;;;;16.52;8.73;;;3.70;65.10;;;;;;5022487;28;20524;-78
2023/04/07 03:23:37;;;;;;;13.65;8.18;;;3.70;65.50;;;;;;5021801;28;20400;-79
2023/04/07 03:26:02;;;;;;;14.73;8.82;;;3.50;65.80;;;;;;5020701;28;20167;-79
2023/04/07 03:28:28;;;;;;;12.48;8.25;;;3.50;66.00;;;;;;5021349;28;20108;-78
2023/04/07 03:30:53;;;;;;;13.30;8.25;;;3.40;66.60;;;;;;5014363;28;20443;-78
2023/04/07 03:33:19;;;;;;;14.43;8.73;;;3.40;66.40;;;;;;5018548;28;20108;-77
2023/04/07 03:35:45;;;;;;;14.57;8.45;;;3.40;66.80;;;;;;5020145;28;20163;-79
2023/04/07 03:38:10;;;;;;;14.43;8.43;;;3.30;67.10;;;;;;5022634;28;20068;-76
2023/04/07 03:40:36;;;;;;;14.90;8.43;;;3.20;67.60;;;;;;5024294;28;20081;-78
2023/04/07 03:43:02;;;;;;;12.43;8.68;;;3.30;67.40;;;;;;5026136;28;20218;-79
2023/04/07 03:45:27;;;;;;;14.48;8.38;;;3.20;67.60;;;;;;5026212;28;20053;-78
2023/04/07 03:47:53;;;;;;;14.93;8.15;;;3.20;67.80;;;;;;5027702;28;20415;-82
2023/04/07 03:50:18;;;;;;;12.23;8.05;;;3.10;67.80;;;;;;5026066;28;20047;-77
2023/04/07 03:52:44;;;;;;;12.52;7.97;;;3.10;67.80;;;;;;5027505;28;20043;-78
2023/04/07 03:55:09;;;;;;;11.50;7.15;;;3.10;68.30;;;;;;5023566;28;20335;-79
2023/04/07 03:57:35;;;;;;;12.60;8.27;;;3.00;68.40;;;;;;5027079;28;20022;-78
2023/04/07 04:00:01;;;;;;;13.55;8.07;;;3.10;68.20;;;;;;5027729;28;20064;-78
2023/04/07 04:02:26;;;;;;;13.57;8.55;;;3.00;68.80;;;;;;5023566;28;20105;-78
2023/04/07 04:04:51;;;;;;;15.80;8.93;;;2.90;69.00;;;;;;5009212;28;20144;-77
2023/04/07 04:07:17;;;;;;;13.77;8.65;;;2.90;68.50;;;;;;5025778;28;20029;-78
2023/04/07 04:09:42;;;;;;;15.07;8.77;;;3.00;68.40;;;;;;5027769;28;20366;-79
2023/04/07 04:12:08;;;;;;;13.55;7.75;;;3.00;68.10;;;;;;5026136;28;20029;-80
2023/04/07 04:14:33;;;;;;;11.07;7.57;;;3.10;68.10;;;;;;5025557;28;20470;-77
2023/04/07 04:16:59;;;;;;;14.07;8.35;;;3.00;68.30;;;;;;5029299;28;20144;-77
2023/04/07 04:19:25;;;;;;;12.85;8.27;;;2.90;68.80;;;;;;5026477;28;20114;-78
2023/04/07 04:21:50;;;;;;;11.25;8.27;;;2.80;69.20;;;;;;5024699;28;20034;-81
2023/04/07 04:24:16;;;;;;;12.93;7.88;;;2.70;69.60;;;;;;5025308;28;20505;-77
2023/04/07 04:26:41;;;;;;;13.20;8.30;;;2.70;69.80;;;;;;5027380;28;20040;-77
2023/04/07 04:29:07;;;;;;;13.93;7.93;;;2.70;69.90;;;;;;5021947;28;20037;-80
2023/04/07 04:31:32;;;;;;;12.70;7.75;;;2.50;70.60;;;;;;5022298;28;20156;-75
2023/04/07 04:33:58;;;;;;;14.93;8.45;;;2.50;70.70;;;;;;5027159;28;20131;-75
2023/04/07 04:36:23;;;;;;;12.93;8.07;;;2.50;70.80;;;;;;5025904;28;20033;-75
2023/04/07 04:38:49;;;;;;;15.48;8.30;;;2.40;70.60;;;;;;5008443;28;20045;-75
2023/04/07 04:41:15;;;;;;;12.75;8.20;;;2.50;70.60;;;;;;5026781;28;20025;-75
2023/04/07 04:43:40;;;;;;;11.95;8.18;;;2.40;71.40;;;;;;5028994;28;20060;-75
2023/04/07 04:46:06;;;;;;;12.95;7.88;;;2.30;71.50;;;;;;5028182;28;20360;-77
2023/04/07 04:48:31;;;;;;;12.43;7.82;;;2.30;72.00;;;;;;5026880;28;20122;-76
2023/04/07 04:50:56;;;;;;;13.05;8.32;;;2.20;72.00;;;;;;5026223;28;20441;-76
2023/04/07 04:53:23;;;;;;;12.63;7.60;;;2.20;72.30;;;;;;5023636;28;20489;-76
2023/04/07 04:55:50;;;;;;;16.13;8.73;;;2.10;72.40;;;;;;5016774;28;20128;-76
2023/04/07 04:58:17;;;;;;;19.20;9.02;;;2.10;72.70;;;;;;5011595;28;20034;-75
2023/04/07 05:00:43;;;;;;;14.90;7.78;;;2.10;73.00;;;;;;5007560;28;20080;-76
2023/04/07 05:03:08;;;;;;;13.02;8.50;;;2.10;73.10;;;;;;5022652;28;20041;-75
2023/04/07 05:05:34;;;;;;;14.23;8.50;;;2.10;72.70;;;;;;5024472;28;20109;-76
2023/04/07 05:07:59;;;;;;;13.65;8.55;;;2.10;72.70;;;;;;5024831;28;20059;-76
2023/04/07 05:10:25;;;;;;;11.95;7.40;;;2.10;73.10;;;;;;5019113;28;20026;-75
2023/04/07 05:12:50;;;;;;;15.02;7.55;;;2.20;72.70;;;;;;5020190;28;20448;-75
2023/04/07 05:15:16;;;;;;;11.95;7.45;;;2.10;73.00;;;;;;5025524;28;20103;-75
2023/04/07 05:17:41;;;;;;;12.30;7.60;;;2.10;73.10;;;;;;5028667;28;20163;-79
2023/04/07 05:20:09;;;;;;;12.43;7.80;;;2.10;73.10;;;;;;5007290;28;20451;-75
2023/04/07 05:22:35;;;;;;;13.88;7.20;;;2.20;72.70;;;;;;5023802;28;20293;-75
2023/04/07 05:25:00;;;;;;;10.43;7.03;;;2.20;72.60;;;;;;5020446;28;20421;-77
2023/04/07 05:27:26;;;;;;;10.90;7.63;;;2.30;72.30;;;;;;5025494;28;21519;-75
2023/04/07 05:29:51;;;;;;;11.65;6.65;;;2.30;72.40;;;;;;5017217;28;20032;-76
2023/04/07 05:32:18;;;;;;;11.02;7.55;;;2.30;72.40;;;;;;5023225;28;20056;-75
2023/04/07 05:34:43;;;;;;;9.52;6.30;;;2.40;72.10;;;;;;5009273;28;20102;-76
2023/04/07 05:37:09;;;;;;;9.55;6.68;;;2.40;72.00;;;;;;5018325;28;20437;-75
2023/04/07 05:39:35;;;;;;;10.65;6.30;;;2.40;71.90;;;;;;5027316;28;20108;-75
2023/04/07 05:42:01;;;;;;;10.93;6.85;;;2.60;71.20;;;;;;5022195;28;20180;-75
2023/04/07 05:44:27;;;;;;;15.07;7.18;;;2.50;71.40;;;;;;5024204;28;20102;-76
2023/04/07 05:46:52;;;;;;;13.65;6.85;;;2.60;71.20;;;;;;5027463;28;20121;-75
2023/04/07 05:49:18;;;;;;;11.63;6.90;;;2.70;70.80;;;;;;5025150;28;20180;-76
2023/04/07 05:51:44;;;;;;;10.50;6.60;;;2.80;70.60;;;;;;5024754;28;20075;-78
2023/04/07 05:54:09;;;;;;;10.43;6.22;;;2.80;70.40;;;;;;5013973;28;20048;-75
2023/04/07 05:56:35;;;;;;;10.75;6.50;;;2.90;69.70;;;;;;5021887;28;20029;-75
2023/04/07 05:59:00;;;;;;;8.52;6.18;;;3.00;70.00;;;;;;5025806;28;20347;-75
2023/04/07 06:01:26;;;;;;;9.30;6.25;;;3.00;69.70;;;;;;5024867;28;20136;-76
2023/04/07 06:03:52;;;;;;;12.05;6.28;;;3.10;69.30;;;;;;5015045;28;20057;-75
2023/04/07 06:06:17;;;;;;;11.98;6.35;;;3.20;68.70;;;;;;5017028;28;20343;-77
2023/04/07 06:08:43;;;;;;;11.45;5.63;;;3.30;68.40;;;;;;5024434;28;20094;-76
2023/04/07 06:11:08;;;;;;;11.38;6.15;;;3.30;68.20;;;;;;5022282;28;20139;-77
2023/04/07 06:13:34;;;;;;;11.60;5.88;;;3.50;67.60;;;;;;5005532;28;20053;-76
2023/04/07 06:15:59;;;;;;;8.80;5.82;;;3.60;67.50;;;;;;5001881;28;20128;-77
2023/04/07 06:18:25;;;;;;;9.13;5.63;;;3.60;67.00;;;;;;5025146;28;20392;-76
2023/04/07 06:20:50;;;;;;;11.05;5.93;;;3.80;66.70;;;;;;5024131;28;20584;-78
2023/04/07 06:23:16;;;;;;;9.38;5.72;;;3.80;67.00;;;;;;5019329;28;20044;-79
2023/04/07 06:25:41;;;;;;;9.80;6.13;;;4.00;66.20;;;;;;5021574;28;20076;-78
2023/04/07 06:28:07;;;;;;;9.18;5.70;;;4.10;65.30;;;;;;5002146;28;20116;-79
2023/04/07 06:30:33;;;;;;;7.25;5.32;;;4.20;65.80;;;;;;5021697;28;20057;-78
2023/04/07 06:32:59;;;;;;;9.20;5.60;;;4.40;65.60;;;;;;5007012;28;20116;-78
2023/04/07 06:35:26;;;;;;;9.88;5.55;;;4.50;64.30;;;;;;5007170;28;20049;-78
2023/04/07 06:37:52;;;;;;;8.77;5.45;;;4.60;63.50;;;;;;5006392;28;20378;-78
2023/04/07 06:40:17;;;;;;;8.98;6.00;;;4.80;63.60;;;;;;5023014;28;20112;-78
2023/04/07 06:42:43;;;;;;;10.25;5.28;;;4.90;62.40;;;;;;5029839;28;20043;-77
2023/04/07 06:45:09;;;;;;;8.38;5.20;;;5.10;62.50;;;;;;5026085;28;20474;-78
2023/04/07 06:47:34;;;;;;;7.80;4.93;;;5.30;61.60;;;;;;5029793;28;20356;-79
2023/04/07 06:50:00;;;;;;;8.90;5.45;;;5.30;61.00;;;;;;5023884;28;20030;-79
2023/04/07 06:52:25;;;;;;;7.82;4.90;;;5.60;61.90;;;;;;5023520;28;20501;-80
2023/04/07 06:54:50;;;;;;;8.45;5.18;;;5.60;60.30;;;;;;5020800;28;20169;-80
2023/04/07 06:57:16;;;;;;;9.55;5.18;;;6.00;61.00;;;;;;5014375;28;20037;-80
2023/04/07 06:59:41;;;;;;;8.75;5.35;;;6.10;60.20;;;;;;5026168;28;20204;-80
2023/04/07 07:02:07;;;;;;;9.00;5.07;;;6.40;59.90;;;;;;5004343;28;20040;-81
2023/04/07 07:04:36;;;;;;;8.00;4.70;;;6.50;59.70;;;;;;5025044;28;20120;-76
2023/04/07 07:07:02;;;;;;;9.18;5.30;;;6.60;58.60;;;;;;5019380;28;20037;-79
2023/04/07 07:09:27;;;;;;;10.15;4.97;;;6.80;57.10;;;;;;5018546;28;20090;-80
2023/04/07 07:11:53;;;;;;;8.50;4.78;;;6.80;56.40;;;;;;5015741;28;20029;-80
2023/04/07 07:14:18;;;;;;;8.07;4.68;;;6.90;56.50;;;;;;5024295;28;20095;-80
2023/04/07 07:16:44;;;;;;;6.82;4.40;;;6.90;55.50;;;;;;5025806;28;20052;-80
2023/04/07 07:19:10;;;;;;;8.77;4.88;;;7.00;54.90;;;;;;5025555;28;20027;-81
2023/04/07 07:21:35;;;;;;;11.82;4.75;;;7.10;54.40;;;;;;5004413;28;20043;-78
2023/04/07 07:24:01;;;;;;;7.78;4.70;;;7.30;56.20;;;;;;5006822;28;20128;-79
2023/04/07 07:26:26;;;;;;;7.18;4.43;;;7.50;55.00;;;;;;5022301;28;20124;-79
2023/04/07 07:28:52;;;;;;;9.85;4.90;;;7.60;55.40;;;;;;5018389;28;20041;-80
2023/04/07 07:31:17;;;;;;;9.23;4.97;;;7.80;54.80;;;;;;5001848;28;20091;-78
2023/04/07 07:33:44;;;;;;;8.52;4.70;;;7.80;54.20;;;;;;5026566;28;20041;-81
2023/04/07 07:36:10;;;;;;;7.78;4.40;;;7.90;53.70;;;;;;5018838;28;20180;-72
2023/04/07 07:38:36;;;;;;;7.95;4.65;;;7.90;52.00;;;;;;5015310;28;20418;-78
2023/04/07 07:41:02;;;;;;;8.80;4.90;;;7.80;51.90;;;;;;5017265;28;20146;-69
2023/04/07 07:43:28;;;;;;;8.10;4.45;;;8.00;52.90;;;;;;5016441;28;20041;-70
2023/04/07 07:45:53;;;;;;;7.32;4.47;;;7.80;51.80;;;;;;5018046;28;20417;-79
2023/04/07 07:48:19;;;;;;;10.13;4.68;;;7.90;51.70;;;;;;5021123;28;20055;-82
2023/04/07 07:50:45;;;;;;;8.85;4.65;;;8.10;52.30;;;;;;5002476;28;20033;-81
2023/04/07 07:53:11;;;;;;;10.18;4.93;;;8.20;51.20;;;;;;5019354;28;20419;-81
2023/04/07 07:55:37;;;;;;;8.90;4.25;;;8.40;51.50;;;;;;5016761;28;20094;-82
2023/04/07 07:58:02;;;;;;;8.50;5.07;;;8.40;49.50;;;;;;5001505;28;20065;-81
2023/04/07 08:00:27;;;;;;;9.98;4.80;;;8.50;50.10;;;;;;5019785;28;20120;-76
2023/04/07 08:02:53;;;;;;;8.88;4.38;;;8.80;50.60;;;;;;5005425;28;20033;-79
2023/04/07 08:05:19;;;;;;;11.98;4.88;;;9.10;50.00;;;;;;5010760;28;20096;-84
2023/04/07 08:07:45;;;;;;;7.95;4.65;;;9.30;49.00;;;;;;5021598;28;20394;-79
2023/04/07 08:10:11;;;;;;;9.85;4.63;;;9.40;48.50;;;;;;5024361;28;20354;-81
2023/04/07 08:12:37;;;;;;;11.50;4.78;;;9.60;48.80;;;;;;5023264;28;20026;-79
2023/04/07 08:15:02;;;;;;;10.02;4.78;;;10.30;48.90;;;;;;5014184;28;20087;-79
2023/04/07 08:17:28;;;;;;;7.60;4.03;;;10.10;46.50;;;;;;5002265;28;20426;-79
2023/04/07 08:19:53;;;;;;;10.20;4.70;;;10.10;46.30;;;;;;5023636;28;20431;-83
2023/04/07 08:22:19;;;;;;;7.63;4.43;;;10.10;46.30;;;;;;5011959;28;20035;-80
2023/04/07 08:24:46;;;;;;;8.40;4.45;;;10.60;47.70;;;;;;5015986;28;20343;-81
2023/04/07 08:27:12;;;;;;;9.45;4.68;;;11.10;46.50;;;;;;5024697;28;20125;-81
2023/04/07 08:29:37;;;;;;;8.52;4.63;;;10.80;46.00;;;;;;5020631;28;20117;-81
2023/04/07 08:32:03;;;;;;;7.88;4.53;;;10.90;45.70;;;;;;5024863;28;20411;-81
2023/04/07 08:34:28;;;;;;;7.32;3.88;;;11.20;46.10;;;;;;5016983;28;20061;-81
2023/04/07 08:36:54;;;;;;;9.82;4.30;;;11.10;44.50;;;;;;5016599;28;20098;-81
2023/04/07 08:39:19;;;;;;;12.07;4.30;;;11.40;45.70;;;;;;5027652;28;20470;-80
2023/04/07 08:41:47;;;;;;;8.00;4.53;;;11.80;45.40;;;;;;5025611;28;20094;-81
2023/04/07 08:44:14;;;;;;;9.05;4.32;;;11.80;44.90;;;;;;5027431;28;20033;-81
2023/04/07 08:46:40;;;;;;;8.75;4.55;;;11.90;43.00;;;;;;5027104;28;20045;-79
2023/04/07 08:49:12;;;;;;;12.35;5.20;;;12.10;44.10;;;;;;5027209;28;20516;-79
2023/04/07 08:51:44;;;;;;;7.43;4.22;;;12.30;43.20;;;;;;5019182;28;20034;-79
2023/04/07 08:54:11;;;;;;;10.00;5.43;;;12.40;43.30;;;;;;5024657;28;20459;-80
2023/04/07 08:56:40;;;;;;;7.95;4.28;;;12.30;42.90;;;;;;5023392;28;20068;-80
2023/04/07 08:59:06;;;;;;;8.77;4.57;;;12.50;44.20;;;;;;5027577;28;20049;-81
2023/04/07 09:01:34;;;;;;;8.27;4.68;;;12.90;42.00;;;;;;5026156;28;20456;-80
2023/04/07 09:04:02;;;;;;;9.90;4.90;;;13.10;41.40;;;;;;5023170;28;20120;-80
2023/04/07 09:06:30;;;;;;;9.05;4.95;;;13.10;41.80;;;;;;5006951;28;20049;-79
2023/04/07 09:08:56;;;;;;;7.60;4.78;;;12.50;40.00;;;;;;5029035;28;20033;-82
2023/04/07 09:11:22;;;;;;;13.68;5.10;;;12.30;38.90;;;;;;5025941;28;20129;-78
2023/04/07 09:13:49;;;;;;;7.93;4.80;;;11.60;40.70;;;;;;5044475;28;20171;-78
2023/04/07 09:16:15;;;;;;;10.65;4.43;;;11.40;41.90;;;;;;5025321;28;20216;-78
2023/04/07 09:18:41;;;;;;;10.25;4.65;;;11.80;41.30;;;;;;5028601;28;20152;-80
2023/04/07 09:21:07;;;;;;;8.55;4.45;;;12.20;41.80;;;;;;5022509;28;20482;-78
2023/04/07 09:23:35;;;;;;;6.47;4.22;;;12.80;42.20;;;;;;5006312;28;20036;-79
2023/04/07 09:26:25;;;;;;;7.03;4.20;;;12.80;41.80;;;;;;5017896;28;20135;-79
2023/04/07 09:28:54;;;;;;;7.90;4.70;;;13.30;39.90;;;;;;5020895;28;20167;-78
2023/04/07 09:31:21;;;;;;;11.65;4.90;;;12.90;39.20;;;;;;5027671;28;20044;-78
2023/04/07 09:33:48;;;;;;;7.78;4.60;;;12.90;40.00;;;;;;5020535;28;20129;-82
2023/04/07 09:36:14;;;;;;;8.05;4.80;;;13.20;41.00;;;;;;5025706;28;20029;-80
2023/04/07 09:38:40;;;;;;;8.73;4.70;;;12.80;40.80;;;;;;5025725;28;20038;-79
2023/04/07 09:41:14;;;;;;;8.70;4.82;;;13.20;40.20;;;;;;5011257;28;20422;-80
2023/04/07 09:43:41;;;;;;;7.40;4.38;;;13.60;41.10;;;;;;5014011;28;20026;-80
2023/04/07 09:46:08;;;;;;;8.80;4.65;;;13.70;39.40;;;;;;5008546;28;20186;-80
2023/04/07 09:48:34;;;;;;;8.93;4.78;;;13.10;39.30;;;;;;5022977;28;20050;-80
2023/04/07 09:51:13;;;;;;;8.70;4.05;;;13.20;40.00;;;;;;5024514;28;20431;-79
2023/04/07 09:53:47;;;;;;;10.55;4.22;;;13.60;39.60;;;;;;5024533;28;20029;-81
2023/04/07 09:56:18;;;;;;;7.65;4.15;;;13.30;39.50;;;;;;5009807;28;20029;-80
2023/04/07 09:58:46;;;;;;;7.63;4.00;;;13.80;40.40;;;;;;5026909;28;20427;-79
2023/04/07 10:01:12;;;;;;;9.02;4.72;;;13.50;38.50;;;;;;5007289;28;20052;-80
2023/04/07 10:03:38;;;;;;;6.78;3.67;;;14.00;39.10;;;;;;5021257;28;20183;-82
2023/04/07 10:06:05;;;;;;;7.43;4.10;;;13.80;41.30;;;;;;5025947;28;20338;-76
2023/04/07 10:08:32;;;;;;;5.93;3.78;;;13.80;40.70;;;;;;5025458;28;20056;-81
2023/04/07 10:11:01;;;;;;;7.78;3.83;;;14.00;39.40;;;;;;5024628;28;20117;-82
2023/04/07 10:13:31;;;;;;;6.75;3.75;;;14.10;39.20;;;;;;5035759;28;20138;-78
2023/04/07 10:15:58;;;;;;;6.55;3.80;;;14.30;39.80;;;;;;5021628;28;20136;-81
2023/04/07 10:18:30;;;;;;;8.45;4.07;;;14.60;39.40;;;;;;5025563;28;20095;-81
2023/04/07 10:20:58;;;;;;;8.95;3.70;;;14.20;39.40;;;;;;5018119;28;20033;-81
2023/04/07 10:23:42;;;;;;;6.80;3.88;;;13.80;38.10;;;;;;5023336;28;20037;-80
2023/04/07 10:26:08;;;;;;;5.82;4.07;;;14.30;38.70;;;;;;5007163;28;20481;-78
2023/04/07 10:28:40;;;;;;;5.90;3.55;;;14.30;38.30;;;;;;5018750;28;20056;-81
2023/04/07 10:31:06;;;;;;;6.50;3.60;;;14.10;39.00;;;;;;5018067;28;20049;-82
2023/04/07 10:33:45;;;;;;;6.13;3.60;;;14.20;38.10;;;;;;5028218;28;20175;-76
2023/04/07 10:36:12;;;;;;;7.90;3.83;;;13.60;38.30;;;;;;5019115;28;20026;-80
2023/04/07 10:38:37;;;;;;;7.15;3.92;;;13.70;39.20;;;;;;5024363;28;20040;-81
2023/04/07 10:41:32;;;;;;;8.57;4.43;;;13.80;38.40;;;;;;5017282;28;20101;-81
2023/04/07 10:43:57;;;;;;;8.13;4.03;;;14.00;39.50;;;;;;5026955;28;20123;-81
2023/04/07 10:46:23;;;;;;;6.07;3.67;;;14.30;38.70;;;;;;5015857;28;20074;-81
2023/04/07 10:49:08;;;;;;;6.78;4.05;;;14.50;39.50;;;;;;5023878;28;20458;-81
2023/04/07 10:51:34;;;;;;;8.48;3.72;;;14.30;38.80;;;;;;5018313;28;20037;-81
2023/04/07 10:54:24;;;;;;;8.80;4.35;;;14.50;37.20;;;;;;5024136;28;20390;-81
2023/04/07 10:57:02;;;;;;;7.68;3.65;;;14.60;39.00;;;;;;5003698;28;20034;-82
2023/04/07 10:59:32;;;;;;;8.02;4.00;;;14.20;37.70;;;;;;5031094;28;20128;-81
2023/04/07 11:02:13;;;;;;;7.32;4.07;;;14.60;37.20;;;;;;5023611;28;20110;-81
2023/04/07 11:04:39;;;;;;;;;;;14.80;36.30;;;;;;5025442;28;20045;-81
2023/04/07 11:07:05;;;;;;;7.18;3.88;;;14.90;35.20;;;;;;5018013;28;20231;-82
2023/04/07 11:09:30;;;;;;;9.63;4.00;;;14.70;37.40;;;;;;5017700;28;20595;-81
2023/04/07 11:11:56;;;;;;;7.57;3.97;;;14.80;36.50;;;;;;5024827;28;20398;-79
2023/04/07 11:14:28;;;;;;;7.28;4.18;;;15.00;37.20;;;;;;5023914;28;20061;-80
2023/04/07 11:16:55;;;;;;;8.90;3.88;;;15.00;37.80;;;;;;5022331;28;20044;-80
2023/04/07 11:19:21;;;;;;;7.68;3.90;;;15.30;36.40;;;;;;5020841;28;20033;-80
2023/04/07 11:21:46;;;;;;;9.55;3.75;;;15.40;35.90;;;;;;5021144;28;20061;-79
2023/04/07 11:24:36;;;;;;;8.93;3.53;;;15.10;33.60;;;;;;5020429;28;20533;-76
2023/04/07 11:27:02;;;;;;;7.60;3.63;;;15.30;35.70;;;;;;5018084;28;20649;-80
2023/04/07 11:29:31;;;;;;;6.43;3.88;;;15.70;36.40;;;;;;5016824;28;20241;-82
2023/04/07 11:32:01;;;;;;;6.82;3.50;;;15.60;34.00;;;;;;5023455;28;20445;-83
2023/04/07 11:34:30;;;;;;;7.57;3.83;;;15.50;34.60;;;;;;5022066;28;20049;-80
2023/04/07 11:36:58;;;;;;;5.72;3.83;;;15.40;35.20;;;;;;5011749;28;20022;-84
2023/04/07 11:39:30;;;;;;;6.50;3.25;;;15.10;35.10;;;;;;5025392;28;20064;-82
2023/04/07 11:41:55;;;;;;;5.88;3.58;;;15.30;37.00;;;;;;5017816;28;20053;-81
2023/04/07 11:44:21;;;;;;;9.07;4.03;;;15.40;36.00;;;;;;5024662;28;20435;-81
2023/04/07 11:47:02;;;;;;;6.10;3.53;;;15.70;35.20;;;;;;5025288;28;20123;-76
2023/04/07 11:49:27;;;;;;;7.97;3.53;;;15.60;34.50;;;;;;5019902;28;20656;-79
2023/04/07 11:52:05;;;;;;;6.03;3.42;;;15.80;35.30;;;;;;5016966;28;20124;-78
2023/04/07 11:54:49;;;;;;;6.30;3.30;;;16.40;34.40;;;;;;5018261;28;20359;-79
2023/04/07 11:57:26;;;;;;;5.72;3.88;;;16.50;33.70;;;;;;5022839;28;20041;-77
2023/04/07 12:00:08;;;;;;;6.70;3.33;;;16.30;33.10;;;;;;5025554;28;20463;-77
2023/04/07 12:02:34;;;;;;;5.50;3.38;;;16.10;32.60;;;;;;5016603;28;20097;-81
2023/04/07 12:05:00;;;;;;;5.70;3.95;;;16.40;34.00;;;;;;5022243;28;20507;-82
2023/04/07 12:07:25;;;;;;;8.60;3.95;;;16.00;32.50;;;;;;5023966;28;20172;-83
2023/04/07 12:09:53;;;;;;;7.47;4.10;;;16.20;32.30;;;;;;5017271;28;20168;-79
2023/04/07 12:12:29;;;;;;;7.53;3.75;;;16.40;33.50;;;;;;5023444;28;20034;-80
2023/04/07 12:14:55;;;;;;;7.00;4.10;;;16.40;33.10;;;;;;5020077;28;20335;-78
2023/04/07 12:17:22;;;;;;;7.28;4.28;;;16.20;35.20;;;;;;5027639;28;20045;-80
2023/04/07 12:19:48;;;;;;;9.27;4.20;;;16.00;33.30;;;;;;5022781;28;20119;-78
2023/04/07 12:22:13;;;;;;;6.40;3.58;;;16.00;34.30;;;;;;5027390;28;20068;-78
2023/04/07 12:24:39;;;;;;;9.10;4.03;;;16.20;34.00;;;;;;5023679;28;20057;-75
2023/04/07 12:27:05;;;;;;;7.32;3.72;;;16.80;32.80;;;;;;5020726;28;20117;-80
2023/04/07 12:29:30;;;;;;;6.72;3.85;;;17.20;32.20;;;;;;5024666;28;20021;-81
2023/04/07 12:31:56;;;;;;;5.68;3.50;;;16.80;32.40;;;;;;5019213;28;20041;-79
2023/04/07 12:34:21;;;;;;;8.68;3.85;;;16.70;32.20;;;;;;5036395;28;20094;-79
2023/04/07 12:36:47;;;;;;;5.45;2.83;;;17.00;31.40;;;;;;5023883;28;20271;-79
2023/04/07 12:39:14;;;;;;;6.07;3.38;;;17.60;31.40;;;;;;5029755;28;20083;-81
2023/04/07 12:41:39;;;;;;;6.88;3.40;;;17.30;31.70;;;;;;5024321;28;20074;-81
2023/04/07 12:44:05;;;;;;;5.80;3.00;;;17.90;30.60;;;;;;5028141;28;20341;-80
2023/04/07 12:46:30;;;;;;;6.47;3.90;;;17.60;30.90;;;;;;5025267;28;20045;-78
2023/04/07 12:48:56;;;;;;;5.82;3.38;;;18.00;31.40;;;;;;5025060;28;20084;-75